Time;durP1;ratioP1;P1;durP2;ratioP2;P2;SDS_P1;SDS_P2;PMS_P1;PMS_P2;Temp;Humidity;BMP_temperature;BMP_pressure;BME280_temperature;BME280_humidity;BME280_pressure;Samples;Min_cycle;Max_cycle;Signal;HPM_P1;HPM_P2
2022/08/15 00:01:18;;;;;;;;;14.50;13.50;;;;;23.35;63.46;100378.31;5093282;27;49814;-67
2022/08/15 00:03:46;;;;;;;;;12.75;11.50;;;;;23.35;63.43;100374.78;5093062;27;49864;-73
2022/08/15 00:06:21;;;;;;;;;11.00;11.00;;;;;23.32;63.69;100373.09;5093194;27;49974;-65
2022/08/15 00:08:50;;;;;;;;;12.25;12.25;;;;;23.20;63.65;100356.63;5093157;27;49810;-69
2022/08/15 00:11:22;;;;;;;;;15.50;14.25;;;;;23.32;63.58;100377.59;5093335;27;49953;-64
2022/08/15 00:13:54;;;;;;;;;19.75;16.25;;;;;23.28;63.50;100368.81;5092902;27;50470;-72
2022/08/15 00:16:19;;;;;;;;;18.50;13.75;;;;;23.29;63.82;100372.34;5092947;27;49809;-69
2022/08/15 00:18:47;;;;;;;;;14.00;14.00;;;;;23.22;63.62;100355.63;5093051;27;50439;-71
2022/08/15 00:21:13;;;;;;;;;14.00;14.00;;;;;23.18;63.54;100347.78;5092023;27;49848;-65
2022/08/15 00:23:41;;;;;;;;;14.75;13.00;;;;;23.29;63.45;100362.50;5091426;27;50550;-64
2022/08/15 00:26:09;;;;;;;;;13.00;11.50;;;;;23.32;63.57;100364.19;5092824;27;49984;-65
2022/08/15 00:28:35;;;;;;;;;14.00;13.50;;;;;23.31;63.49;100370.47;5091697;27;49790;-64
2022/08/15 00:31:00;;;;;;;;;14.00;14.00;;;;;23.24;63.68;100360.94;5092954;27;49812;-64
2022/08/15 00:33:28;;;;;;;;;18.75;18.00;;;;;23.19;63.94;100360.25;5092862;27;49781;-65
2022/08/15 00:35:54;;;;;;;;;15.25;13.75;;;;;23.16;64.01;100352.31;5086030;27;49734;-67
2022/08/15 00:38:22;;;;;;;;;17.50;17.50;;;;;23.23;64.23;100367.22;5092774;27;49736;-65
2022/08/15 00:43:41;;;;;;;;;13.00;13.00;;;;;23.19;64.18;100366.47;5092322;27;49838;-64
2022/08/15 00:46:09;;;;;;;;;16.50;15.00;;;;;23.15;64.56;100367.50;5092331;27;49944;-73
2022/08/15 00:48:44;;;;;;;;;20.50;18.00;;;;;23.03;64.60;100352.78;5092445;27;49696;-64
2022/08/15 00:51:24;;;;;;;;;14.00;14.00;;;;;23.04;64.79;100367.03;5092653;27;49802;-71
2022/08/15 00:53:57;;;;;;;;;18.00;14.25;;;;;23.01;64.64;100361.78;5092384;27;50596;-65
2022/08/15 00:56:28;;;;;;;;;20.00;18.00;;;;;22.98;64.62;100364.59;5092307;27;49852;-70
2022/08/15 00:58:54;;;;;;;;;16.50;16.00;;;;;22.85;64.98;100351.63;5092143;27;49909;-73
2022/08/15 01:01:21;;;;;;;;;19.00;18.25;;;;;22.90;65.01;100359.50;5092466;27;49931;-70
2022/08/15 01:03:48;;;;;;;;;19.50;16.25;;;;;22.84;65.33;100357.91;5092315;27;49908;-74
2022/08/15 01:06:15;;;;;;;;;24.00;18.75;;;;;22.63;65.73;100339.94;5092473;27;49709;-72
2022/08/15 01:08:44;;;;;;;;;14.25;14.25;;;;;22.72;65.84;100358.34;5092267;27;50120;-65
2022/08/15 01:11:15;;;;;;;;;18.00;18.00;;;;;22.70;66.12;100368.22;5092564;27;50627;-64
2022/08/15 01:13:41;;;;;;;;;18.25;16.50;;;;;22.67;66.47;100370.97;5092032;27;50323;-64
2022/08/15 01:16:08;;;;;;;;;18.50;15.50;;;;;22.61;66.59;100356.97;5091760;27;50091;-64
2022/08/15 01:18:33;;;;;;;;;21.75;19.25;;;;;22.60;66.74;100379.31;5092023;27;49645;-68
2022/08/15 01:21:07;;;;;;;;;21.25;20.75;;;;;22.53;67.00;100378.63;5092126;27;50189;-66
2022/08/15 01:23:46;;;;;;;;;17.50;17.50;;;;;22.49;67.26;100374.31;5091885;27;50907;-72
2022/08/15 01:26:15;;;;;;;;;15.00;13.75;;;;;22.43;67.33;100363.81;5091944;27;49852;-72
2022/08/15 01:28:45;;;;;;;;;14.75;14.75;;;;;22.42;67.45;100381.69;5091992;27;49633;-69
2022/08/15 01:31:22;;;;;;;;;25.00;21.50;;;;;22.30;67.51;100358.03;5091828;27;49823;-67
2022/08/15 01:33:51;;;;;;;;;19.50;18.50;;;;;22.34;67.49;100366.81;5091534;27;50912;-71
2022/08/15 01:36:20;;;;;;;;;17.50;17.50;;;;;22.09;67.85;100330.19;5091385;27;50007;-66
2022/08/15 01:38:56;;;;;;;;;21.00;21.00;;;;;22.18;67.99;100355.75;5091684;27;49696;-68
2022/08/15 01:41:36;;;;;;;;;17.00;17.00;;;;;22.23;67.78;100362.69;5074264;27;49714;-71
2022/08/15 01:44:32;;;;;;;;;16.00;16.00;;;;;22.05;67.77;100347.22;5091388;27;50248;-71
2022/08/15 01:47:13;;;;;;;;;17.75;15.25;;;;;22.17;67.85;100362.03;5091792;27;49770;-67
2022/08/15 01:50:02;;;;;;;;;19.75;19.75;;;;;22.12;68.21;100364.00;5091564;27;49991;-64
2022/08/15 01:52:36;;;;;;;;;21.00;19.25;;;;;21.96;68.14;100339.50;5091372;27;49945;-65
2022/08/15 01:55:04;;;;;;;;;17.75;16.75;;;;;22.04;68.41;100357.97;5090961;27;50732;-64
2022/08/15 01:57:30;;;;;;;;;17.50;17.50;;;;;22.02;68.44;100360.72;5091296;27;50540;-69
2022/08/15 01:59:58;;;;;;;;;21.75;21.25;;;;;21.96;68.58;100355.56;5089612;27;49853;-73
2022/08/15 02:02:25;;;;;;;;;21.75;21.25;;;;;21.77;68.69;100336.56;5091611;27;49799;-66
2022/08/15 02:04:51;;;;;;;;;20.75;18.50;;;;;21.89;68.75;100356.66;5090701;27;50652;-64
2022/08/15 02:07:18;;;;;;;;;27.00;22.50;;;;;21.87;68.83;100351.38;5091364;27;50321;-65
2022/08/15 02:09:45;;;;;;;;;19.75;18.00;;;;;21.72;68.99;100333.19;5091150;27;49685;-70
2022/08/15 02:12:12;;;;;;;;;19.50;19.50;;;;;21.79;68.97;100348.06;5090860;27;49765;-65
2022/08/15 02:14:41;;;;;;;;;20.25;20.00;;;;;21.75;69.37;100338.41;5072406;27;49823;-72
2022/08/15 02:17:08;;;;;;;;;19.25;19.25;;;;;21.78;69.30;100353.47;5090618;27;49712;-64
2022/08/15 02:19:34;;;;;;;;;20.00;19.75;;;;;21.69;69.33;100344.81;5089168;27;49935;-66
2022/08/15 02:21:59;;;;;;;;;20.50;20.50;;;;;21.74;68.95;100347.34;5091334;27;49634;-68
2022/08/15 02:24:25;;;;;;;;;22.00;20.75;;;;;21.74;69.06;100334.00;5090930;27;49867;-64
2022/08/15 02:26:52;;;;;;;;;32.50;24.25;;;;;21.71;69.20;100343.00;5090874;27;49900;-64
2022/08/15 02:29:23;;;;;;;;;23.00;21.00;;;;;21.64;69.33;100329.88;5090656;27;49596;-64
2022/08/15 02:31:51;;;;;;;;;21.00;21.00;;;;;21.65;69.36;100335.16;5072620;27;49843;-71
2022/08/15 02:34:18;;;;;;;;;20.75;20.75;;;;;21.56;69.43;100326.56;5090444;27;50834;-73
2022/08/15 02:36:44;;;;;;;;;24.75;23.50;;;;;21.27;69.38;100274.94;5090661;27;49718;-65
2022/08/15 02:39:10;;;;;;;;;26.50;22.00;;;;;21.43;69.78;100305.59;5072699;27;49784;-71
2022/08/15 02:41:41;;;;;;;;;21.75;19.50;;;;;21.52;69.56;100333.81;5091127;27;49752;-66
2022/08/15 02:44:08;;;;;;;;;20.25;19.50;;;;;21.43;69.82;100310.94;5090547;27;49831;-67
2022/08/15 02:46:36;;;;;;;;;23.50;23.00;;;;;21.42;70.00;100316.28;5090749;27;49741;-73
2022/08/15 02:49:03;;;;;;;;;20.75;20.75;;;;;21.38;70.10;100317.31;5090556;27;49716;-70
2022/08/15 02:51:29;;;;;;;;;25.00;24.25;;;;;21.40;69.92;100321.69;5090596;27;49652;-65
2022/08/15 02:53:56;;;;;;;;;25.75;25.50;;;;;21.33;70.04;100322.81;5090438;27;50409;-65
2022/08/15 02:56:27;;;;;;;;;24.00;20.50;;;;;21.30;70.49;100319.34;5090659;27;49915;-70
2022/08/15 02:58:53;;;;;;;;;22.50;20.00;;;;;21.26;70.42;100321.25;5090623;27;49715;-67
2022/08/15 03:01:21;;;;;;;;;23.75;22.50;;;;;21.25;70.53;100315.91;5090900;27;50012;-66
2022/08/15 03:03:51;;;;;;;;;20.25;17.50;;;;;21.22;70.80;100318.66;5090360;27;50628;-66
2022/08/15 03:06:22;;;;;;;;;22.00;21.00;;;;;21.16;70.54;100317.06;5090282;27;49579;-64
2022/08/15 03:08:47;;;;;;;;;23.00;20.75;;;;;21.09;70.91;100303.00;5090439;27;49621;-69
2022/08/15 03:11:13;;;;;;;;;22.25;19.75;;;;;20.82;70.77;100267.34;5090542;27;49557;-72
2022/08/15 03:13:40;;;;;;;;;21.25;21.25;;;;;21.07;71.25;100312.00;5090284;27;50583;-64
2022/08/15 03:16:07;;;;;;;;;20.25;20.25;;;;;21.04;71.36;100315.63;5090211;27;49593;-66
2022/08/15 03:18:34;;;;;;;;;21.00;20.50;;;;;21.00;71.06;100305.94;5090523;27;50011;-73
2022/08/15 03:21:04;;;;;;;;;21.75;21.75;;;;;21.04;71.06;100314.75;5090507;27;49823;-67
2022/08/15 03:23:31;;;;;;;;;21.50;19.25;;;;;20.93;70.63;100307.03;5090104;27;50351;-66
2022/08/15 03:25:59;;;;;;;;;21.25;21.25;;;;;20.97;71.04;100315.84;5090033;27;49696;-64
2022/08/15 03:28:28;;;;;;;;;22.75;20.25;;;;;20.67;71.76;100269.59;5090143;27;49817;-72
2022/08/15 03:31:05;;;;;;;;;29.00;25.00;;;;;20.93;71.49;100315.03;5090449;27;50023;-71
2022/08/15 03:33:32;;;;;;;;;25.25;22.50;;;;;20.81;71.23;100292.25;5093742;27;51035;-67
2022/08/15 03:35:58;;;;;;;;;26.50;24.50;;;;;20.90;71.54;100312.47;5093693;27;49789;-64
2022/08/15 03:38:24;;;;;;;;;22.00;21.00;;;;;20.37;71.60;100228.63;5093809;27;49794;-70
2022/08/15 03:40:50;;;;;;;;;25.25;21.75;;;;;20.78;71.46;100294.16;5093662;27;49823;-65
2022/08/15 03:43:26;;;;;;;;;27.25;24.50;;;;;20.85;71.35;100309.09;5093024;27;49713;-67
2022/08/15 03:46:02;;;;;;;;;22.00;21.00;;;;;20.83;71.43;100311.75;5093334;27;49844;-64
2022/08/15 03:48:31;;;;;;;;;26.50;24.50;;;;;20.46;71.28;100239.03;5093533;27;49576;-68
2022/08/15 03:50:59;;;;;;;;;24.50;21.75;;;;;20.81;71.23;100310.94;5093795;27;49579;-72
2022/08/15 03:53:27;;;;;;;;;24.50;22.50;;;;;20.76;71.18;100302.22;5093533;27;49824;-64
2022/08/15 03:55:52;;;;;;;;;16.50;16.50;;;;;20.53;70.53;100264.63;5093135;27;49998;-70
2022/08/15 03:58:17;;;;;;;;;23.25;21.75;;;;;20.49;70.42;100246.97;5093409;27;50133;-65
2022/08/15 04:00:46;;;;;;;;;21.75;21.75;;;;;20.68;70.28;100282.00;5093137;27;50018;-71
2022/08/15 04:03:22;;;;;;;;;25.00;24.00;;;;;20.75;70.98;100295.13;5093023;27;49831;-63
2022/08/15 04:05:51;;;;;;;;;20.75;19.75;;;;;20.76;70.20;100296.00;5093298;27;49903;-64
2022/08/15 04:08:19;;;;;;;;;25.75;21.75;;;;;20.73;70.53;100293.41;5093039;27;49776;-71
2022/08/15 04:10:46;;;;;;;;;24.00;21.75;;;;;20.71;70.77;100296.13;5093424;27;49683;-67
2022/08/15 04:13:12;;;;;;;;;21.25;21.25;;;;;20.70;71.13;100293.50;5092320;27;49862;-65
2022/08/15 04:15:38;;;;;;;;;22.75;21.50;;;;;20.68;70.73;100287.34;5092846;27;50344;-71
2022/08/15 04:18:06;;;;;;;;;24.00;22.75;;;;;20.43;70.88;100256.00;5093102;27;49846;-71
2022/08/15 04:20:32;;;;;;;;;22.25;22.25;;;;;20.60;70.89;100273.34;5093069;27;49747;-72
2022/08/15 04:22:57;;;;;;;;;17.00;16.75;;;;;20.65;70.83;100290.94;5092794;27;50405;-71
2022/08/15 04:25:32;;;;;;;;;24.75;21.25;;;;;20.27;70.89;100230.69;5093031;27;49886;-80
2022/08/15 04:27:59;;;;;;;;;21.50;19.25;;;;;20.63;70.84;100289.25;5093048;27;49664;-71
2022/08/15 04:30:28;;;;;;;;;21.25;21.25;;;;;20.54;70.72;100277.03;5074237;27;49719;-65
2022/08/15 04:32:56;;;;;;;;;26.25;24.50;;;;;20.53;71.07;100284.16;5092768;27;49837;-71
2022/08/15 04:35:22;;;;;;;;;24.00;20.50;;;;;20.53;70.74;100284.16;5092638;27;49809;-64
2022/08/15 04:37:48;;;;;;;;;22.25;22.25;;;;;20.29;71.15;100242.16;5092784;27;49807;-64
2022/08/15 04:40:14;;;;;;;;;22.00;21.25;;;;;20.40;70.68;100266.72;5091828;27;49828;-65
2022/08/15 04:42:58;;;;;;;;;24.50;21.00;;;;;20.42;70.93;100269.34;5091579;27;50769;-63
2022/08/15 04:45:24;;;;;;;;;22.25;21.50;;;;;20.51;70.37;100295.78;5091513;27;49812;-64
2022/08/15 04:47:51;;;;;;;;;17.25;17.25;;;;;20.51;70.62;100290.47;5092713;27;49966;-69
2022/08/15 04:50:16;;;;;;;;;24.00;21.00;;;;;20.49;70.56;100297.63;5092128;27;50020;-68
2022/08/15 04:52:47;;;;;;;;;23.00;23.00;;;;;20.28;70.65;100257.28;5073896;27;51914;-64
2022/08/15 04:55:14;;;;;;;;;22.50;20.50;;;;;20.44;70.60;100286.22;5092512;27;49954;-65
2022/08/15 04:57:40;;;;;;;;;21.75;18.75;;;;;20.41;70.85;100279.13;5091366;27;50004;-72
2022/08/15 05:00:10;;;;;;;;;26.50;24.50;;;;;20.44;70.69;100281.75;5092253;27;49772;-72
2022/08/15 05:02:36;;;;;;;;;26.25;23.25;;;;;20.31;70.79;100256.31;5073999;27;52182;-69
2022/08/15 05:05:01;;;;;;;;;24.00;22.00;;;;;20.41;70.47;100262.28;5092377;27;49861;-72
2022/08/15 05:07:28;;;;;;;;;21.25;21.25;;;;;20.49;70.58;100278.97;5092396;27;49806;-66
2022/08/15 05:09:58;;;;;;;;;21.00;21.00;;;;;20.29;70.62;100232.38;5092329;27;49542;-72
2022/08/15 05:12:24;;;;;;;;;19.25;18.00;;;;;20.49;70.63;100258.50;5091910;27;49799;-72
2022/08/15 05:14:50;;;;;;;;;27.00;23.25;;;;;20.52;70.31;100266.41;5091639;27;49969;-64
2022/08/15 05:17:15;;;;;;;;;24.75;21.25;;;;;20.54;70.09;100259.25;5092087;27;49791;-72
2022/08/15 05:19:41;;;;;;;;;24.75;21.50;;;;;20.44;69.69;100241.75;5092199;27;49722;-68
2022/08/15 05:22:06;;;;;;;;;22.25;19.75;;;;;20.48;69.48;100243.44;5091050;27;50340;-66
2022/08/15 05:24:32;;;;;;;;;17.75;17.25;;;;;20.62;68.99;100248.38;5092103;27;50220;-65
2022/08/15 05:26:57;;;;;;;;;20.50;17.75;;;;;20.68;68.90;100255.34;5091973;27;49870;-63
2022/08/15 05:29:23;;;;;;;;;24.75;23.00;;;;;20.74;68.65;100260.47;5091711;27;50092;-69
2022/08/15 05:31:49;;;;;;;;;17.75;17.00;;;;;20.75;68.92;100256.88;5090612;27;50528;-68
2022/08/15 05:34:15;;;;;;;;;19.00;17.25;;;;;20.68;68.72;100242.88;5091667;27;49692;-64
2022/08/15 05:36:41;;;;;;;;;20.25;16.00;;;;;20.76;68.28;100246.19;5091639;27;49821;-67
2022/08/15 05:39:25;;;;;;;;;16.00;14.75;;;;;20.57;68.05;100207.63;5091980;27;49881;-72
2022/08/15 05:42:12;;;;;;;;;18.00;16.50;;;;;20.91;67.88;100259.97;5085231;27;49935;-63
2022/08/15 05:45:06;;;;;;;;;20.75;17.00;;;;;20.95;67.61;100257.19;5091461;27;49807;-65
2022/08/15 05:47:35;;;;;;;;;20.00;18.00;;;;;20.73;67.89;100214.25;5091743;27;49699;-64
2022/08/15 05:50:25;;;;;;;;;17.75;15.00;;;;;21.04;67.45;100256.06;5091525;27;49790;-63
2022/08/15 05:53:05;;;;;;;;;16.25;14.00;;;;;20.84;67.21;100216.59;5091148;27;50016;-66
2022/08/15 05:55:43;;;;;;;;;20.00;18.00;;;;;21.14;67.36;100258.41;5090151;27;50376;-64
2022/08/15 05:58:29;;;;;;;;;18.75;17.75;;;;;21.21;67.18;100260.84;5091743;27;49927;-67
2022/08/15 06:01:12;;;;;;;;;17.25;16.00;;;;;21.28;67.00;100258.00;5091522;27;49871;-71
2022/08/15 06:03:42;;;;;;;;;18.75;18.00;;;;;21.33;66.85;100264.06;5091351;27;49977;-64
2022/08/15 06:06:15;;;;;;;;;16.75;16.75;;;;;21.41;66.49;100266.47;5091249;27;49670;-70
2022/08/15 06:08:46;;;;;;;;;22.25;21.25;;;;;21.49;66.18;100269.78;5091267;27;49877;-73
2022/08/15 06:11:26;;;;;;;;;20.00;18.50;;;;;21.59;65.37;100273.91;5090096;27;49629;-63
2022/08/15 06:13:57;;;;;;;;;17.75;16.25;;;;;21.65;65.01;100263.03;5091022;27;51244;-65
2022/08/15 06:16:39;;;;;;;;;20.75;20.75;;;;;21.79;64.67;100270.59;5091241;27;50402;-65
2022/08/15 06:19:11;;;;;;;;;16.25;15.50;;;;;21.84;64.36;100271.31;5089803;27;49901;-73
2022/08/15 06:21:53;;;;;;;;;20.50;15.00;;;;;21.92;64.49;100265.72;5090375;27;50023;-71
2022/08/15 06:24:35;;;;;;;;;19.25;18.00;;;;;22.00;64.40;100259.19;5089954;27;52530;-64
2022/08/15 06:27:16;;;;;;;;;19.00;14.75;;;;;22.08;64.08;100255.41;5090926;27;49820;-66
2022/08/15 06:30:16;;;;;;;;;18.75;17.25;;;;;22.16;63.63;100256.88;5090571;27;49824;-72
2022/08/15 06:32:47;;;;;;;;;15.75;15.75;;;;;22.17;63.61;100258.63;5081088;27;49866;-64
2022/08/15 06:35:25;;;;;;;;;15.25;15.25;;;;;22.23;63.49;100252.22;5089362;27;50611;-66
2022/08/15 06:38:01;;;;;;;;;15.50;14.50;;;;;22.28;63.28;100251.09;5085151;27;49795;-64
2022/08/15 06:40:51;;;;;;;;;23.00;20.50;;;;;22.31;63.24;100258.16;5090352;27;49885;-64
2022/08/15 06:43:16;;;;;;;;;17.25;15.00;;;;;22.35;62.91;100256.25;5038031;27;49983;-64
2022/08/15 06:45:47;;;;;;;;;22.75;18.00;;;;;22.35;62.90;100249.09;5089522;27;50104;-69
2022/08/15 06:48:15;;;;;;;;;18.00;15.75;;;;;22.41;62.92;100251.56;5090402;27;49643;-69
2022/08/15 06:50:47;;;;;;;;;17.75;15.00;;;;;22.39;62.68;100250.75;5090013;27;49852;-63
2022/08/15 06:53:18;;;;;;;;;17.75;15.25;;;;;22.46;62.57;100238.00;5090302;27;50047;-65
2022/08/15 06:55:53;;;;;;;;;20.75;18.75;;;;;22.47;62.70;100247.75;5089783;27;49724;-73
2022/08/15 06:58:47;;;;;;;;;17.00;16.00;;;;;22.21;62.58;100198.78;5090501;27;49810;-64
2022/08/15 07:02:05;;;;;;;;;19.50;16.75;;;;;22.50;62.54;100245.00;5088586;27;49923;-71
2022/08/15 07:04:54;;;;;;;;;18.00;15.50;;;;;22.26;62.58;100211.97;5053540;27;49943;-67
2022/08/15 07:07:41;;;;;;;;;16.25;16.25;;;;;22.41;62.56;100229.28;5086347;27;50014;-69
2022/08/15 07:10:32;;;;;;;;;10.75;10.75;;;;;22.56;62.72;100258.13;5089841;27;50011;-67
2022/08/15 07:13:04;;;;;;;;;19.50;16.75;;;;;22.62;62.03;100259.72;5094133;27;49669;-73
2022/08/15 07:15:56;;;;;;;;;16.50;16.50;;;;;22.70;61.82;100254.97;5092960;27;50235;-71
2022/08/15 07:18:28;;;;;;;;;16.00;14.50;;;;;22.62;61.74;100231.16;5085371;27;50916;-66
2022/08/15 07:21:11;;;;;;;;;18.75;17.75;;;;;22.75;61.67;100243.16;5093153;27;49728;-65
2022/08/15 07:24:11;;;;;;;;;12.00;11.00;;;;;22.88;61.39;100256.13;5092815;27;49850;-72
2022/08/15 07:26:46;;;;;;;;;18.00;17.00;;;;;22.95;61.08;100253.13;5090866;27;49686;-65
2022/08/15 07:29:25;;;;;;;;;14.75;14.75;;;;;22.76;60.99;100222.63;5092941;27;50799;-66
2022/08/15 07:31:59;;;;;;;;;15.25;14.75;;;;;23.06;60.65;100258.94;5092944;27;49839;-66
2022/08/15 07:34:24;;;;;;;;;15.50;15.50;;;;;23.14;60.65;100269.38;5093243;27;49761;-66
2022/08/15 07:37:03;;;;;;;;;20.00;13.75;;;;;23.20;60.33;100265.59;5093649;27;49791;-65
2022/08/15 07:39:35;;;;;;;;;18.50;14.75;;;;;23.23;60.17;100260.09;5094239;27;50544;-66
2022/08/15 07:42:20;;;;;;;;;20.00;17.75;;;;;23.28;59.87;100268.84;5093799;27;49829;-64
2022/08/15 07:44:57;;;;;;;;;17.25;15.50;;;;;23.28;59.55;100256.31;5090157;27;49874;-67
2022/08/15 07:47:32;;;;;;;;;16.75;15.25;;;;;23.26;59.49;100247.47;5094003;27;49766;-67
2022/08/15 07:50:12;;;;;;;;;18.50;16.25;;;;;23.39;59.52;100266.59;5092811;27;50461;-65
2022/08/15 07:52:39;;;;;;;;;14.50;13.50;;;;;23.44;59.24;100259.25;5090876;27;49749;-66
2022/08/15 07:55:18;;;;;;;;;17.00;15.00;;;;;23.46;58.80;100254.72;5091534;27;49797;-67
2022/08/15 07:57:59;;;;;;;;;13.00;12.00;;;;;23.29;57.87;100228.59;5093145;27;49910;-67
2022/08/15 08:00:34;;;;;;;;;16.25;15.00;;;;;23.55;58.26;100253.47;5092705;27;50250;-67
2022/08/15 08:03:20;;;;;;;;;11.50;10.50;;;;;23.57;57.17;100256.97;5093332;27;49925;-66
2022/08/15 08:06:14;;;;;;;;;10.00;9.50;;;;;23.32;56.60;100207.03;5087236;27;49743;-66
2022/08/15 08:08:48;;;;;;;;;12.00;10.75;;;;;23.67;56.26;100259.22;5093636;27;49677;-67
2022/08/15 08:11:41;;;;;;;;;11.50;10.75;;;;;23.70;55.90;100255.53;5091939;27;49658;-71
2022/08/15 08:14:37;;;;;;;;;12.25;11.00;;;;;23.74;55.60;100262.53;5092373;27;49768;-68
2022/08/15 08:17:28;;;;;;;;;9.75;9.75;;;;;23.81;55.63;100266.69;5092457;27;50051;-68
2022/08/15 08:20:15;;;;;;;;;11.25;10.00;;;;;23.88;55.38;100257.47;5086740;27;49814;-71
2022/08/15 08:22:48;;;;;;;;;11.25;10.25;;;;;23.90;55.51;100255.59;5092379;27;49774;-70
2022/08/15 08:25:19;;;;;;;;;10.50;10.50;;;;;23.94;55.30;100256.34;5092817;27;49970;-69
2022/08/15 08:27:56;;;;;;;;;9.75;9.75;;;;;24.01;55.73;100256.94;5092723;27;49938;-70
2022/08/15 08:30:30;;;;;;;;;11.25;9.50;;;;;23.89;55.09;100219.00;5092308;27;49798;-68
2022/08/15 08:33:17;;;;;;;;;8.75;8.75;;;;;24.20;54.93;100256.09;5077401;27;51855;-71
2022/08/15 08:36:06;;;;;;;;;11.00;9.00;;;;;24.33;54.81;100259.16;5092436;27;49866;-74
2022/08/15 08:39:26;;;;;;;;;13.00;10.25;;;;;24.44;54.81;100262.22;5082454;27;49815;-72
2022/08/15 08:42:33;;;;;;;;;12.00;9.00;;;;;24.47;53.51;100248.66;5042722;27;50151;-72
2022/08/15 08:45:11;;;;;;;;;8.75;7.25;;;;;24.63;53.33;100248.00;5089848;27;49977;-71
2022/08/15 08:48:06;;;;;;;;;10.75;10.25;;;;;24.63;52.96;100251.56;5091180;27;49641;-69
2022/08/15 08:50:54;;;;;;;;;11.75;11.75;;;;;24.63;53.04;100239.94;5092292;27;49733;-68
2022/08/15 08:53:40;;;;;;;;;11.75;11.75;;;;;24.85;52.85;100264.84;5092668;27;50043;-70
2022/08/15 08:56:19;;;;;;;;;12.50;11.50;;;;;24.82;52.27;100230.09;5088040;27;49868;-70
2022/08/15 08:58:59;;;;;;;;;12.00;12.00;;;;;25.13;51.98;100261.78;5099501;27;49793;-71
2022/08/15 09:01:26;;;;;;;;;11.50;11.25;;;;;25.19;51.58;100239.13;5093885;27;49990;-70
2022/08/15 09:03:56;;;;;;;;;10.50;10.50;;;;;25.49;51.09;100274.41;5092551;27;49602;-73
2022/08/15 09:06:25;;;;;;;;;10.25;10.25;;;;;25.60;51.09;100270.25;5092406;27;50566;-72
2022/08/15 09:09:02;;;;;;;;;12.50;11.00;;;;;25.52;50.79;100256.31;5089547;27;50002;-73
2022/08/15 09:11:37;;;;;;;;;9.25;8.50;;;;;25.62;50.13;100244.16;5092678;27;49791;-71
2022/08/15 09:14:25;;;;;;;;;11.00;10.75;;;;;25.78;49.56;100264.97;5091967;27;49782;-72
2022/08/15 09:16:55;;;;;;;;;11.75;10.00;;;;;25.86;49.92;100265.41;5092132;27;49779;-70
2022/08/15 09:19:32;;;;;;;;;10.75;9.50;;;;;26.02;49.72;100269.09;5091900;27;49606;-67
2022/08/15 09:21:58;;;;;;;;;12.25;11.00;;;;;25.94;48.74;100239.88;5092404;27;50127;-74
2022/08/15 09:24:24;;;;;;;;;9.00;9.00;;;;;25.91;49.20;100239.19;5073587;27;49840;-75
2022/08/15 09:27:10;;;;;;;;;7.25;7.25;;;;;25.99;48.98;100236.97;5090315;27;51053;-80
2022/08/15 09:29:45;;;;;;;;;11.50;10.50;;;;;26.10;48.56;100228.34;5069941;27;49501;-69
2022/08/15 09:32:29;;;;;;;;;10.50;10.50;;;;;26.44;49.01;100257.97;5093516;27;49957;-80
2022/08/15 09:35:22;;;;;;;;;8.75;8.75;;;;;26.52;47.77;100254.84;5094967;27;49913;-74
2022/08/15 09:38:01;;;;;;;;;12.50;11.50;;;;;26.23;47.38;100256.34;5072946;27;51134;-69
2022/08/15 09:40:58;;;;;;;;;10.25;9.25;;;;;26.04;47.66;100259.13;5088553;27;50236;-68
2022/08/15 09:44:02;;;;;;;;;9.25;9.25;;;;;26.06;48.15;100267.13;5091328;27;49936;-73
2022/08/15 09:46:49;;;;;;;;;8.00;8.00;;;;;26.15;47.75;100267.53;5091592;27;49856;-75
2022/08/15 09:50:00;;;;;;;;;9.00;8.75;;;;;26.17;48.06;100245.94;5090671;27;50808;-73
2022/08/15 09:52:37;;;;;;;;;11.00;8.50;;;;;26.21;47.74;100264.50;5089677;27;49740;-66
2022/08/15 09:55:17;;;;;;;;;9.00;9.00;;;;;25.13;47.57;100089.91;5091487;27;49730;-69
2022/08/15 09:57:52;;;;;;;;;12.25;10.75;;;;;25.08;47.55;100094.63;5091562;27;49783;-71
2022/08/15 10:00:29;;;;;;;;;10.75;10.75;;;;;25.94;47.81;100261.41;5090980;27;50983;-66
2022/08/15 10:03:00;;;;;;;;;11.25;10.00;;;;;25.75;48.47;100259.72;5091048;27;49819;-67
2022/08/15 10:06:05;;;;;;;;;8.00;8.00;;;;;25.58;48.15;100217.53;5091076;27;49877;-69
2022/08/15 10:08:53;;;;;;;;;6.25;6.25;;;;;25.73;48.53;100254.41;5088912;27;49923;-70
2022/08/15 10:11:30;;;;;;;;;10.00;9.50;;;;;25.44;48.31;100218.19;5091991;27;49686;-67
2022/08/15 10:14:06;;;;;;;;;12.50;12.00;;;;;25.64;48.93;100252.16;5092264;27;49917;-69
2022/08/15 10:16:40;;;;;;;;;12.50;10.50;;;;;25.65;48.75;100261.94;5084942;27;49853;-66
2022/08/15 10:19:11;;;;;;;;;10.75;10.25;;;;;25.48;48.82;100237.72;5091033;27;49786;-71
2022/08/15 10:21:44;;;;;;;;;14.75;12.00;;;;;25.50;48.75;100238.53;5090532;27;51353;-68
2022/08/15 10:24:38;;;;;;;;;11.00;10.75;;;;;25.49;49.27;100237.66;5091246;27;49973;-70
2022/08/15 10:27:09;;;;;;;;;10.50;9.50;;;;;25.60;49.21;100259.50;5083983;27;50034;-67
2022/08/15 10:29:46;;;;;;;;;12.25;11.25;;;;;25.52;49.85;100252.75;5090972;27;49831;-68
2022/08/15 10:32:38;;;;;;;;;10.25;10.25;;;;;25.07;50.90;100170.75;5091042;27;49995;-66
2022/08/15 10:35:35;;;;;;;;;9.75;8.75;;;;;25.57;51.12;100258.78;5093085;27;49752;-67
2022/08/15 10:38:03;;;;;;;;;6.25;6.25;;;;;25.51;51.51;100254.59;5092866;27;49825;-70
2022/08/15 10:40:47;;;;;;;;;6.00;6.00;;;;;25.53;51.23;100260.75;5091395;27;49969;-67
2022/08/15 10:43:33;;;;;;;;;4.50;4.50;;;;;25.27;51.54;100219.00;5090894;27;50879;-64
2022/08/15 10:46:17;;;;;;;;;3.00;3.00;;;;;25.22;51.39;100221.06;5072225;27;49925;-70
2022/08/15 10:48:58;;;;;;;;;4.50;4.25;;;;;24.60;51.58;100138.94;5090455;27;49957;-74
2022/08/15 10:51:58;;;;;;;;;5.25;4.50;;;;;25.35;52.25;100257.13;5090924;27;49751;-72
2022/08/15 10:55:20;;;;;;;;;3.00;3.00;;;;;25.23;52.38;100248.78;5058396;27;50829;-72
2022/08/15 10:57:49;;;;;;;;;4.00;4.00;;;;;25.35;52.30;100264.31;5047078;28;49895;-69
2022/08/15 11:00:37;;;;;;;;;6.00;5.00;;;;;25.31;53.05;100265.44;5048916;28;49971;-72
2022/08/15 11:03:07;;;;;;;;;4.50;4.50;;;;;25.16;52.78;100266.13;5077231;27;49695;-78
2022/08/15 11:05:33;;;;;;;;;7.25;5.50;;;;;25.29;52.66;100252.06;5092322;27;49624;-73
2022/08/15 11:07:58;;;;;;;;;4.50;3.50;;;;;25.35;53.13;100256.25;5091544;27;49667;-74
2022/08/15 11:10:32;;;;;;;;;5.50;5.50;;;;;25.18;53.10;100207.84;5071706;27;49895;-74
2022/08/15 11:13:06;;;;;;;;;5.50;5.00;;;;;24.65;53.03;100111.91;5090438;27;49793;-72
2022/08/15 11:15:46;;;;;;;;;5.50;5.00;;;;;25.16;52.70;100221.34;5089833;27;50578;-73
2022/08/15 11:18:11;;;;;;;;;4.50;4.50;;;;;25.40;52.52;100241.66;5090537;27;50340;-71
2022/08/15 11:20:52;;;;;;;;;4.25;4.25;;;;;25.44;52.84;100231.63;5083768;27;50067;-72
2022/08/15 11:23:39;;;;;;;;;4.50;3.50;;;;;25.71;52.35;100272.44;5090666;27;50075;-70
2022/08/15 11:26:08;;;;;;;;;6.00;4.75;;;;;25.72;51.98;100284.94;5090377;27;49869;-81
2022/08/15 11:28:34;;;;;;;;;5.00;5.00;;;;;25.19;52.33;100206.88;5089694;27;49733;-71
2022/08/15 11:30:59;;;;;;;;;7.00;6.75;;;;;25.76;52.13;100278.44;5090204;27;49608;-76
2022/08/15 11:33:41;;;;;;;;;3.25;3.25;;;;;25.78;52.75;100278.41;5090233;27;49714;-74
2022/08/15 11:36:09;;;;;;;;;4.50;4.50;;;;;25.86;52.40;100278.88;5090052;27;49897;-76
2022/08/15 11:38:37;;;;;;;;;8.00;5.75;;;;;25.87;51.83;100275.25;5089205;27;49908;-72
2022/08/15 11:41:03;;;;;;;;;5.75;5.00;;;;;25.85;51.39;100263.69;5089957;27;49740;-76
2022/08/15 11:43:29;;;;;;;;;5.25;5.00;;;;;25.18;51.52;100132.63;5071492;27;49718;-73
2022/08/15 11:45:56;;;;;;;;;2.75;2.75;;;;;26.25;51.39;100281.38;5084141;27;51599;-72
2022/08/15 11:48:36;;;;;;;;;5.00;4.75;;;;;26.43;50.61;100274.19;5105917;27;49427;-71